createdAt,value
2023-02-19T00:00:59.093Z,4.13
2023-02-19T00:03:26.278Z,3.43
2023-02-19T00:05:53.435Z,7.97
2023-02-19T00:08:20.562Z,2.73
2023-02-19T00:10:47.713Z,7.97
2023-02-19T00:13:15.005Z,3.10
2023-02-19T00:15:42.178Z,9.87
2023-02-19T00:18:09.398Z,5.23
2023-02-19T00:20:36.546Z,3.73
2023-02-19T00:23:03.709Z,4.73
2023-02-19T00:25:30.825Z,4.30
2023-02-19T00:27:57.988Z,6.90
2023-02-19T00:30:25.173Z,3.67
2023-02-19T00:32:52.428Z,5.73
2023-02-19T00:35:19.624Z,4.30
2023-02-19T00:37:46.842Z,7.67
2023-02-19T00:40:14.032Z,3.60
2023-02-19T00:42:41.175Z,6.50
2023-02-19T00:45:08.543Z,5.40
2023-02-19T00:47:35.665Z,4.03
2023-02-19T00:50:02.879Z,6.60
2023-02-19T00:52:30.010Z,5.80
2023-02-19T00:54:57.109Z,4.60
2023-02-19T00:57:24.227Z,7.80
2023-02-19T00:59:51.393Z,6.73
2023-02-19T01:02:18.571Z,4.53
2023-02-19T01:04:45.698Z,3.70
2023-02-19T01:07:12.882Z,5.97
2023-02-19T01:09:40.090Z,6.90
2023-02-19T01:12:07.473Z,6.00
2023-02-19T01:14:34.607Z,5.23
2023-02-19T01:17:01.725Z,4.83
2023-02-19T01:19:28.977Z,5.93
2023-02-19T01:21:56.107Z,5.43
2023-02-19T01:24:23.232Z,3.50
2023-02-19T01:26:50.441Z,4.40
2023-02-19T01:29:17.638Z,3.73
2023-02-19T01:31:44.925Z,4.97
2023-02-19T01:34:12.989Z,2.93
2023-02-19T01:36:40.134Z,4.50
2023-02-19T01:39:07.544Z,9.40
2023-02-19T01:41:39.455Z,4.87
2023-02-19T01:44:26.594Z,2.50
2023-02-19T01:46:58.639Z,7.67
2023-02-19T01:49:28.501Z,5.13
2023-02-19T01:52:01.371Z,2.83
2023-02-19T01:54:30.633Z,6.60
2023-02-19T01:56:58.188Z,6.63
2023-02-19T01:59:25.360Z,2.87
2023-02-19T02:01:52.779Z,5.23
2023-02-19T02:04:20.010Z,4.20
2023-02-19T02:06:52.192Z,7.57
2023-02-19T02:09:38.679Z,5.73
2023-02-19T02:12:05.886Z,5.87
2023-02-19T02:14:35.205Z,2.83
2023-02-19T02:17:21.030Z,5.33
2023-02-19T02:20:02.086Z,2.67
2023-02-19T02:22:47.345Z,3.13
2023-02-19T02:25:14.462Z,3.83
2023-02-19T02:28:00.381Z,4.87
2023-02-19T02:30:27.638Z,4.87
2023-02-19T02:33:15.999Z,3.17
2023-02-19T02:35:45.814Z,4.83
2023-02-19T02:38:14.391Z,5.60
2023-02-19T02:40:43.812Z,2.87
2023-02-19T02:43:11.760Z,3.63
2023-02-19T02:45:39.976Z,4.53
2023-02-19T02:48:10.335Z,2.50
2023-02-19T02:50:57.776Z,5.70
2023-02-19T02:53:58.263Z,4.17
2023-02-19T02:56:26.139Z,5.70
2023-02-19T02:58:54.021Z,6.13
2023-02-19T03:01:43.772Z,7.20
2023-02-19T03:04:14.742Z,3.07
2023-02-19T03:06:43.301Z,3.67
2023-02-19T03:09:20.086Z,4.97
2023-02-19T03:12:07.824Z,4.17
2023-02-19T03:14:57.414Z,3.93
2023-02-19T03:17:49.529Z,3.80
2023-02-19T03:20:18.223Z,4.93
2023-02-19T03:22:46.107Z,2.00
2023-02-19T03:25:38.485Z,4.70
2023-02-19T03:28:07.487Z,5.10
2023-02-19T03:30:37.402Z,3.90
2023-02-19T03:33:08.279Z,2.47
2023-02-19T03:35:42.616Z,3.67
2023-02-19T03:38:10.041Z,4.93
2023-02-19T03:40:42.284Z,5.33
2023-02-19T03:43:09.432Z,1.40
2023-02-19T03:45:45.907Z,2.43
2023-02-19T03:48:25.741Z,2.30
2023-02-19T03:50:59.413Z,2.73
2023-02-19T03:53:47.256Z,3.77
2023-02-19T03:56:23.137Z,4.17
2023-02-19T03:58:50.267Z,3.57
2023-02-19T04:01:22.291Z,2.23
2023-02-19T04:03:52.653Z,4.07
2023-02-19T04:06:39.690Z,2.87
2023-02-19T04:09:08.233Z,3.77
2023-02-19T04:11:37.347Z,3.23
2023-02-19T04:14:13.799Z,3.87
2023-02-19T04:16:42.757Z,4.10
2023-02-19T04:19:12.135Z,2.87
2023-02-19T04:21:40.794Z,4.67
2023-02-19T04:24:10.962Z,2.90
2023-02-19T04:26:38.346Z,3.47
2023-02-19T04:29:05.507Z,2.47
2023-02-19T04:31:35.480Z,3.70
2023-02-19T04:34:03.868Z,3.47
2023-02-19T04:36:31.740Z,3.63
2023-02-19T04:38:59.012Z,5.97
2023-02-19T04:41:26.278Z,2.13
2023-02-19T04:43:53.453Z,1.13
2023-02-19T04:46:20.665Z,2.00
2023-02-19T04:48:47.830Z,2.93
2023-02-19T04:51:15.078Z,3.90
2023-02-19T04:53:42.785Z,5.07
2023-02-19T04:56:10.858Z,2.27
2023-02-19T04:58:38.070Z,3.70
2023-02-19T05:01:05.510Z,4.20
2023-02-19T05:03:32.995Z,1.27
2023-02-19T05:06:02.620Z,3.37
2023-02-19T05:08:29.746Z,4.87
2023-02-19T05:11:03.981Z,3.13
2023-02-19T05:13:31.355Z,4.00
2023-02-19T05:16:00.101Z,2.83
2023-02-19T05:18:27.602Z,4.20
2023-02-19T05:20:55.278Z,2.33
2023-02-19T05:23:22.446Z,3.03
2023-02-19T05:25:49.797Z,4.67
2023-02-19T05:28:17.079Z,3.37
2023-02-19T05:30:51.531Z,4.27
2023-02-19T05:33:19.491Z,3.03
2023-02-19T05:35:48.246Z,2.43
2023-02-19T05:38:16.227Z,4.40
2023-02-19T05:40:44.147Z,5.00
2023-02-19T05:43:11.713Z,3.97
2023-02-19T05:45:39.125Z,3.43
2023-02-19T05:48:07.113Z,1.43
2023-02-19T05:50:35.449Z,2.70
2023-02-19T05:53:03.121Z,4.33
2023-02-19T05:55:30.306Z,4.00
2023-02-19T05:57:57.456Z,4.37
2023-02-19T06:00:26.999Z,3.63
2023-02-19T06:02:54.455Z,3.30
2023-02-19T06:05:21.858Z,3.27
2023-02-19T06:07:50.519Z,3.63
2023-02-19T06:10:18.228Z,3.93
2023-02-19T06:12:45.621Z,3.70
2023-02-19T06:15:12.780Z,2.60
2023-02-19T06:17:39.975Z,5.03
2023-02-19T06:20:07.374Z,3.70
2023-02-19T06:22:34.500Z,2.73
2023-02-19T06:25:01.697Z,4.07
2023-02-19T06:27:28.969Z,5.50
2023-02-19T06:29:56.137Z,2.13
2023-02-19T06:32:23.493Z,4.77
2023-02-19T06:34:50.695Z,2.30
2023-02-19T06:37:17.847Z,3.67
2023-02-19T06:39:45.035Z,2.80
2023-02-19T06:42:12.226Z,4.23
2023-02-19T06:44:39.458Z,3.73
2023-02-19T06:47:06.583Z,2.77
2023-02-19T06:49:33.694Z,4.10
2023-02-19T06:52:01.956Z,3.83
2023-02-19T06:54:29.116Z,5.63
2023-02-19T06:56:58.969Z,4.83
2023-02-19T06:59:26.413Z,6.47
2023-02-19T07:01:53.595Z,4.97
2023-02-19T07:04:20.773Z,2.70
2023-02-19T07:06:48.008Z,4.63
2023-02-19T07:09:15.265Z,3.10
2023-02-19T07:11:42.690Z,3.60
2023-02-19T07:14:14.281Z,3.17
2023-02-19T07:16:41.518Z,3.07
2023-02-19T07:19:09.652Z,3.90
2023-02-19T07:21:37.829Z,2.30
2023-02-19T07:24:05.928Z,4.50
2023-02-19T07:26:33.130Z,4.73
2023-02-19T07:29:00.346Z,2.50
2023-02-19T07:31:27.670Z,2.53
2023-02-19T07:33:55.497Z,2.40
2023-02-19T07:36:23.750Z,3.57
2023-02-19T07:38:57.470Z,3.53
2023-02-19T07:41:25.192Z,3.30
2023-02-19T07:43:52.374Z,7.70
2023-02-19T07:46:19.550Z,4.17
2023-02-19T07:48:46.681Z,3.43
2023-02-19T07:51:19.024Z,2.27
2023-02-19T07:53:47.030Z,6.03
2023-02-19T07:56:14.292Z,3.67
2023-02-19T07:58:41.565Z,5.27
2023-02-19T08:01:16.311Z,2.67
2023-02-19T08:03:43.804Z,4.57
2023-02-19T08:06:11.920Z,4.23
2023-02-19T08:08:39.790Z,4.57
2023-02-19T08:11:25.946Z,3.40
2023-02-19T08:13:53.851Z,2.83
2023-02-19T08:16:33.264Z,5.00
2023-02-19T08:19:04.743Z,4.10
2023-02-19T08:21:34.199Z,6.33
2023-02-19T08:24:01.564Z,3.63
2023-02-19T08:26:28.833Z,3.63
2023-02-19T08:28:55.952Z,4.00
2023-02-19T08:31:23.177Z,2.53
2023-02-19T08:33:50.407Z,2.83
2023-02-19T08:36:17.608Z,3.90
2023-02-19T08:38:44.765Z,4.60
2023-02-19T08:41:13.110Z,3.67
2023-02-19T08:43:41.097Z,5.57
2023-02-19T08:46:10.174Z,5.93
2023-02-19T08:48:37.709Z,5.73
2023-02-19T08:51:08.095Z,5.03
2023-02-19T08:53:35.817Z,4.60
2023-02-19T08:56:07.083Z,3.37
2023-02-19T08:58:34.293Z,4.10
2023-02-19T09:01:01.463Z,2.93
2023-02-19T09:03:28.768Z,7.17
2023-02-19T09:05:55.903Z,5.27
2023-02-19T09:08:23.097Z,3.83
2023-02-19T09:11:03.386Z,3.30
2023-02-19T09:13:30.587Z,4.97
2023-02-19T09:15:57.802Z,6.03
2023-02-19T09:18:25.544Z,3.07
2023-02-19T09:20:52.777Z,2.63
2023-02-19T09:23:19.913Z,4.20
2023-02-19T09:25:47.180Z,3.83
2023-02-19T09:28:14.366Z,4.47
2023-02-19T09:30:41.585Z,3.83
2023-02-19T09:33:09.221Z,4.87
2023-02-19T09:35:38.921Z,3.30
2023-02-19T09:38:06.155Z,2.53
2023-02-19T09:40:33.554Z,5.67
2023-02-19T09:43:01.844Z,4.77
2023-02-19T09:45:29.219Z,3.27
2023-02-19T09:47:57.616Z,2.97
2023-02-19T09:50:30.934Z,4.43
2023-02-19T09:52:59.751Z,6.27
2023-02-19T09:55:37.914Z,4.23
2023-02-19T09:58:27.239Z,5.50
2023-02-19T10:00:56.100Z,4.83
2023-02-19T10:03:31.769Z,7.23
2023-02-19T10:06:00.203Z,4.30
2023-02-19T10:08:27.442Z,4.47
2023-02-19T10:10:54.898Z,7.07
2023-02-19T10:13:23.708Z,3.20
2023-02-19T10:15:56.017Z,6.93
2023-02-19T10:18:24.741Z,3.60
2023-02-19T10:20:53.246Z,5.53
2023-02-19T10:23:21.050Z,4.93
2023-02-19T10:25:50.221Z,6.03
2023-02-19T10:28:22.346Z,5.10
2023-02-19T10:30:54.260Z,5.40
2023-02-19T10:33:22.357Z,9.33
2023-02-19T10:36:07.165Z,6.70
2023-02-19T10:38:35.706Z,7.77
2023-02-19T10:41:07.521Z,3.57
2023-02-19T10:43:40.760Z,8.30
2023-02-19T10:46:08.918Z,4.33
2023-02-19T10:48:38.115Z,4.80
2023-02-19T10:51:07.140Z,3.43
2023-02-19T10:53:41.454Z,7.93
2023-02-19T10:56:14.333Z,7.70
2023-02-19T10:58:44.734Z,7.07
2023-02-19T11:01:12.336Z,7.60
2023-02-19T11:03:39.745Z,6.90
2023-02-19T11:06:09.035Z,7.00
2023-02-19T11:08:46.097Z,4.70
2023-02-19T11:11:26.904Z,5.10
2023-02-19T11:13:55.185Z,4.53
2023-02-19T11:16:22.377Z,4.30
2023-02-19T11:18:57.231Z,5.93
2023-02-19T11:21:32.969Z,5.60
2023-02-19T11:24:02.790Z,4.67
2023-02-19T11:26:38.178Z,7.13
2023-02-19T11:29:19.907Z,4.87
2023-02-19T11:31:47.159Z,6.13
2023-02-19T11:34:14.578Z,5.33
2023-02-19T11:36:42.058Z,5.77
2023-02-19T11:39:18.113Z,5.97
2023-02-19T11:42:09.798Z,7.93
2023-02-19T11:44:46.555Z,4.83
2023-02-19T11:47:22.756Z,5.00
2023-02-19T11:49:58.722Z,8.13
2023-02-19T11:52:44.384Z,3.30
2023-02-19T11:55:26.904Z,2.27
2023-02-19T11:58:00.861Z,2.27
2023-02-19T12:00:29.449Z,3.97
2023-02-19T12:03:15.369Z,3.17
2023-02-19T12:05:57.841Z,3.57
2023-02-19T12:08:24.955Z,3.67
2023-02-19T12:10:52.195Z,3.40
2023-02-19T12:13:39.572Z,3.07
2023-02-19T12:16:15.948Z,2.87
2023-02-19T12:18:49.209Z,2.57
2023-02-19T12:21:38.984Z,4.23
2023-02-19T12:24:18.499Z,2.53
2023-02-19T12:26:59.260Z,3.20
2023-02-19T12:29:45.107Z,2.10
2023-02-19T12:32:18.424Z,3.83
2023-02-19T12:34:52.717Z,2.07
2023-02-19T12:37:19.846Z,3.17
2023-02-19T12:40:05.835Z,2.27
2023-02-19T12:42:35.992Z,2.33
2023-02-19T12:45:05.782Z,2.70
2023-02-19T12:47:35.824Z,3.57
2023-02-19T12:50:08.993Z,4.80
2023-02-19T12:52:40.943Z,5.93
2023-02-19T12:55:20.921Z,2.87
2023-02-19T12:57:48.346Z,5.00
2023-02-19T13:00:22.206Z,7.50
2023-02-19T13:02:51.669Z,12.37
2023-02-19T13:05:21.242Z,5.60
2023-02-19T13:08:00.900Z,7.57
2023-02-19T13:10:41.212Z,6.00
2023-02-19T13:13:13.541Z,4.80
2023-02-19T13:15:45.901Z,9.27
2023-02-19T13:18:19.452Z,5.00
2023-02-19T13:20:47.830Z,8.90
2023-02-19T13:23:40.377Z,5.90
2023-02-19T13:26:07.747Z,8.30
2023-02-19T13:28:53.262Z,7.77
2023-02-19T13:31:24.867Z,12.93
2023-02-19T13:34:04.459Z,9.40
2023-02-19T13:36:31.906Z,9.13
2023-02-19T13:39:00.116Z,8.33
2023-02-19T13:41:29.060Z,6.87
2023-02-19T13:44:01.451Z,7.67
2023-02-19T13:46:34.568Z,12.57
2023-02-19T13:49:20.678Z,8.23
2023-02-19T13:51:49.563Z,9.70
2023-02-19T13:54:22.897Z,13.13
2023-02-19T13:56:50.685Z,15.00
2023-02-19T13:59:17.788Z,15.00
2023-02-19T14:01:54.115Z,19.37
2023-02-19T14:04:21.391Z,18.57
2023-02-19T14:07:04.030Z,15.73
2023-02-19T14:09:37.099Z,18.67
2023-02-19T14:12:10.380Z,14.33
2023-02-19T14:14:37.665Z,15.97
2023-02-19T14:17:12.506Z,19.27
2023-02-19T14:19:42.872Z,15.43
2023-02-19T14:22:30.709Z,13.33
2023-02-19T14:24:58.442Z,14.70
2023-02-19T14:27:26.166Z,17.20
2023-02-19T14:29:53.596Z,19.20
2023-02-19T14:32:20.937Z,14.43
2023-02-19T14:34:48.230Z,16.63
2023-02-19T14:37:20.249Z,16.30
2023-02-19T14:39:47.796Z,17.27
2023-02-19T14:42:17.748Z,21.27
2023-02-19T14:44:44.862Z,17.40
2023-02-19T14:47:16.885Z,17.53
2023-02-19T14:49:53.264Z,18.07
2023-02-19T14:52:44.390Z,17.50
2023-02-19T14:55:18.902Z,19.80
2023-02-19T14:57:47.318Z,14.80
2023-02-19T15:00:23.635Z,19.40
2023-02-19T15:02:52.762Z,18.63
2023-02-19T15:05:22.871Z,21.80
2023-02-19T15:07:50.754Z,19.43
2023-02-19T15:10:18.837Z,14.83
2023-02-19T15:12:52.112Z,16.93
2023-02-19T15:15:22.201Z,16.33
2023-02-19T15:17:50.107Z,26.67
2023-02-19T15:20:18.872Z,22.10
2023-02-19T15:22:46.374Z,22.57
2023-02-19T15:25:18.757Z,20.57
2023-02-19T15:27:45.968Z,19.30
2023-02-19T15:30:21.369Z,16.17
2023-02-19T15:32:56.053Z,23.90
2023-02-19T15:35:25.080Z,19.10
2023-02-19T15:37:52.844Z,20.30
2023-02-19T15:40:21.154Z,17.57
2023-02-19T15:42:48.478Z,23.27
2023-02-19T15:45:23.555Z,15.97
2023-02-19T15:47:53.124Z,17.20
2023-02-19T15:50:25.985Z,20.47
2023-02-19T15:53:09.295Z,19.70
2023-02-19T15:55:42.335Z,20.50
2023-02-19T15:58:15.778Z,22.00
2023-02-19T16:00:47.312Z,22.27
2023-02-19T16:03:21.673Z,20.23
2023-02-19T16:06:15.034Z,18.27
2023-02-19T16:08:43.444Z,16.23
2023-02-19T16:11:40.166Z,20.37
2023-02-19T16:14:26.151Z,22.20
2023-02-19T16:16:55.463Z,17.57
2023-02-19T16:19:24.179Z,20.77
2023-02-19T16:21:51.857Z,17.03
2023-02-19T16:24:33.491Z,21.63
2023-02-19T16:27:01.005Z,19.70
2023-02-19T16:29:29.688Z,26.47
2023-02-19T16:32:00.475Z,17.33
2023-02-19T16:34:48.028Z,20.00
2023-02-19T16:37:30.470Z,18.60
2023-02-19T16:40:17.526Z,24.50
2023-02-19T16:42:51.634Z,21.00
2023-02-19T16:45:19.206Z,26.70
2023-02-19T16:47:51.104Z,18.37
2023-02-19T16:50:20.573Z,20.23
2023-02-19T16:53:05.781Z,18.17
2023-02-19T16:55:34.536Z,21.43
2023-02-19T16:58:02.011Z,26.27
2023-02-19T17:00:30.239Z,21.73
2023-02-19T17:03:02.477Z,20.83
2023-02-19T17:05:32.522Z,22.50
2023-02-19T17:07:59.752Z,22.30
2023-02-19T17:10:28.143Z,18.80
2023-02-19T17:12:56.110Z,21.67
2023-02-19T17:15:23.602Z,19.43
2023-02-19T17:17:50.790Z,22.43
2023-02-19T17:20:17.900Z,27.93
2023-02-19T17:22:45.148Z,22.13
2023-02-19T17:25:12.276Z,21.67
2023-02-19T17:27:39.655Z,24.23
2023-02-19T17:30:12.253Z,17.13
2023-02-19T17:32:39.486Z,21.30
2023-02-19T17:35:06.836Z,18.47
2023-02-19T17:37:33.980Z,24.47
2023-02-19T17:40:01.116Z,19.83
2023-02-19T17:42:28.345Z,22.37
2023-02-19T17:44:55.527Z,27.77
2023-02-19T17:47:22.645Z,15.43
2023-02-19T17:49:49.775Z,20.63
2023-02-19T17:52:19.305Z,21.43
2023-02-19T17:54:46.547Z,19.20
2023-02-19T17:57:13.669Z,23.67
2023-02-19T17:59:40.816Z,20.00
2023-02-19T18:02:07.979Z,24.77
2023-02-19T18:04:36.612Z,18.63
2023-02-19T18:07:04.200Z,18.33
2023-02-19T18:09:31.326Z,25.90
2023-02-19T18:11:58.508Z,21.70
2023-02-19T18:14:25.635Z,20.77
2023-02-19T18:16:52.786Z,18.57
2023-02-19T18:19:20.061Z,18.60
2023-02-19T18:21:47.285Z,21.87
2023-02-19T18:24:14.466Z,21.37
2023-02-19T18:26:41.611Z,20.43
2023-02-19T18:29:08.784Z,18.17
2023-02-19T18:31:37.807Z,21.10
2023-02-19T18:34:05.805Z,21.13
2023-02-19T18:36:33.216Z,22.30
2023-02-19T18:39:00.357Z,21.00
2023-02-19T18:41:27.481Z,20.43
2023-02-19T18:43:54.656Z,15.40
2023-02-19T18:46:22.216Z,21.03
2023-02-19T18:48:49.387Z,22.93
2023-02-19T18:51:16.503Z,21.93
2023-02-19T18:53:43.817Z,20.67
2023-02-19T18:56:10.965Z,18.13
2023-02-19T18:58:38.117Z,22.00
2023-02-19T19:01:05.363Z,20.10
2023-02-19T19:03:32.552Z,18.57
2023-02-19T19:05:59.746Z,23.40
2023-02-19T19:08:28.191Z,13.23
2023-02-19T19:10:56.277Z,23.07
2023-02-19T19:13:23.438Z,21.13
2023-02-19T19:15:51.201Z,19.67
2023-02-19T19:18:18.519Z,20.73
2023-02-19T19:20:45.701Z,25.07
2023-02-19T19:23:13.024Z,19.47
2023-02-19T19:25:40.287Z,17.80
2023-02-19T19:28:07.432Z,18.63
2023-02-19T19:30:34.683Z,19.03
2023-02-19T19:33:03.533Z,15.73
2023-02-19T19:35:30.681Z,19.57
2023-02-19T19:37:57.817Z,19.63
2023-02-19T19:40:24.937Z,17.73
2023-02-19T19:42:52.604Z,22.20
2023-02-19T19:45:19.834Z,17.53
2023-02-19T19:47:48.639Z,18.27
2023-02-19T19:50:16.482Z,21.77
2023-02-19T19:52:43.654Z,19.53
2023-02-19T19:55:10.913Z,22.43
2023-02-19T19:57:40.604Z,19.93
2023-02-19T20:00:08.331Z,19.63
2023-02-19T20:02:35.555Z,16.87
2023-02-19T20:05:02.739Z,15.00
2023-02-19T20:07:29.871Z,18.93
2023-02-19T20:09:57.014Z,16.83
2023-02-19T20:12:24.141Z,17.13
2023-02-19T20:14:51.353Z,15.03
2023-02-19T20:17:18.539Z,16.03
2023-02-19T20:19:46.257Z,17.27
2023-02-19T20:22:13.448Z,15.87
2023-02-19T20:24:40.611Z,17.47
2023-02-19T20:27:07.745Z,14.93
2023-02-19T20:29:35.492Z,13.80
2023-02-19T20:32:03.740Z,14.50
2023-02-19T20:34:31.344Z,12.87
2023-02-19T20:36:58.750Z,15.20
2023-02-19T20:39:28.951Z,14.67
2023-02-19T20:41:56.282Z,16.70
2023-02-19T20:44:23.544Z,17.43
2023-02-19T20:46:51.354Z,15.43
2023-02-19T20:49:19.947Z,15.43
2023-02-19T20:51:48.279Z,14.80
2023-02-19T20:54:16.960Z,16.90
2023-02-19T20:56:47.586Z,14.57
2023-02-19T20:59:15.562Z,14.77
2023-02-19T21:01:43.016Z,15.50
2023-02-19T21:04:10.213Z,14.30
2023-02-19T21:06:37.565Z,16.83
2023-02-19T21:09:05.692Z,16.90
2023-02-19T21:11:33.195Z,14.97
2023-02-19T21:14:00.365Z,16.53
2023-02-19T21:16:28.603Z,13.83
2023-02-19T21:18:56.058Z,14.93
2023-02-19T21:21:27.260Z,21.63
2023-02-19T21:23:55.479Z,19.77
2023-02-19T21:26:23.327Z,13.23
2023-02-19T21:28:53.691Z,17.87
2023-02-19T21:31:22.849Z,13.03
2023-02-19T21:33:51.614Z,18.83
2023-02-19T21:36:18.991Z,17.20
2023-02-19T21:38:46.127Z,15.70
2023-02-19T21:41:13.293Z,14.23
2023-02-19T21:43:40.480Z,15.30
2023-02-19T21:46:07.594Z,19.73
2023-02-19T21:48:34.728Z,23.10
2023-02-19T21:51:01.901Z,21.03
2023-02-19T21:53:29.071Z,13.60
2023-02-19T21:55:59.087Z,12.37
2023-02-19T21:58:26.911Z,12.63
2023-02-19T22:00:54.304Z,14.80
2023-02-19T22:03:21.528Z,14.97
2023-02-19T22:05:48.640Z,16.50
2023-02-19T22:08:17.408Z,10.83
2023-02-19T22:10:44.771Z,13.07
2023-02-19T22:13:11.961Z,12.03
2023-02-19T22:15:39.107Z,15.90
2023-02-19T22:18:06.341Z,14.03
2023-02-19T22:20:34.712Z,11.93
2023-02-19T22:23:01.919Z,14.87
2023-02-19T22:25:29.080Z,14.50
2023-02-19T22:27:56.309Z,13.20
2023-02-19T22:30:23.550Z,10.90
2023-02-19T22:32:50.812Z,13.27
2023-02-19T22:35:18.095Z,10.83
2023-02-19T22:37:45.258Z,12.40
2023-02-19T22:40:12.706Z,12.37
2023-02-19T22:42:40.006Z,13.20
2023-02-19T22:45:07.460Z,12.93
2023-02-19T22:47:34.586Z,13.13
2023-02-19T22:50:01.779Z,16.13
2023-02-19T22:52:28.961Z,14.00
2023-02-19T22:54:56.538Z,18.07
2023-02-19T22:57:23.668Z,11.30
2023-02-19T22:59:50.832Z,16.70
2023-02-19T23:02:17.995Z,10.53
2023-02-19T23:04:45.245Z,11.90
2023-02-19T23:07:12.414Z,11.10
2023-02-19T23:09:39.575Z,12.00
2023-02-19T23:12:08.282Z,13.23
2023-02-19T23:14:35.836Z,12.43
2023-02-19T23:17:03.112Z,16.07
2023-02-19T23:19:30.573Z,13.23
2023-02-19T23:21:58.125Z,10.67
2023-02-19T23:24:25.470Z,14.07
2023-02-19T23:26:53.518Z,15.63
2023-02-19T23:29:27.320Z,10.33
2023-02-19T23:31:55.041Z,10.63
2023-02-19T23:34:22.372Z,10.83
2023-02-19T23:36:50.459Z,15.33
2023-02-19T23:39:19.057Z,12.40
2023-02-19T23:41:47.313Z,10.07
2023-02-19T23:44:14.520Z,12.23
2023-02-19T23:46:41.749Z,12.40
2023-02-19T23:49:08.862Z,9.60
2023-02-19T23:51:36.013Z,9.97
2023-02-19T23:54:03.153Z,11.20
2023-02-19T23:56:30.653Z,11.83
2023-02-19T23:58:58.088Z,8.10
